sensor_id;sensor_type;location;lat;lon;timestamp;P1;durP1;ratioP1;P2;durP2;ratioP2
37559;SDS011;23398;50.928;7.084;2023-05-10T00:00:33;2.95;;;2.75;;
37559;SDS011;23398;50.928;7.084;2023-05-10T00:02:59;3.38;;;3.08;;
37559;SDS011;23398;50.928;7.084;2023-05-10T00:05:24;3.10;;;2.90;;
37559;SDS011;23398;50.928;7.084;2023-05-10T00:07:50;3.80;;;3.40;;
37559;SDS011;23398;50.928;7.084;2023-05-10T00:10:15;3.50;;;3.20;;
37559;SDS011;23398;50.928;7.084;2023-05-10T00:12:41;4.05;;;3.65;;
37559;SDS011;23398;50.928;7.084;2023-05-10T00:15:07;3.65;;;3.35;;
37559;SDS011;23398;50.928;7.084;2023-05-10T00:17:33;4.00;;;3.65;;
37559;SDS011;23398;50.928;7.084;2023-05-10T00:19:59;4.47;;;3.75;;
37559;SDS011;23398;50.928;7.084;2023-05-10T00:22:25;4.72;;;4.28;;
37559;SDS011;23398;50.928;7.084;2023-05-10T00:24:51;4.40;;;3.75;;
37559;SDS011;23398;50.928;7.084;2023-05-10T00:27:16;4.63;;;4.22;;
37559;SDS011;23398;50.928;7.084;2023-05-10T00:29:42;5.40;;;4.68;;
37559;SDS011;23398;50.928;7.084;2023-05-10T00:32:07;4.53;;;4.13;;
37559;SDS011;23398;50.928;7.084;2023-05-10T00:34:33;4.82;;;4.43;;
37559;SDS011;23398;50.928;7.084;2023-05-10T00:36:58;5.35;;;4.75;;
37559;SDS011;23398;50.928;7.084;2023-05-10T00:39:24;7.07;;;4.63;;
37559;SDS011;23398;50.928;7.084;2023-05-10T00:41:51;5.70;;;5.10;;
37559;SDS011;23398;50.928;7.084;2023-05-10T00:44:17;6.32;;;4.70;;
37559;SDS011;23398;50.928;7.084;2023-05-10T00:46:43;5.20;;;4.70;;
37559;SDS011;23398;50.928;7.084;2023-05-10T00:49:09;5.78;;;5.25;;
37559;SDS011;23398;50.928;7.084;2023-05-10T00:51:35;5.38;;;4.88;;
37559;SDS011;23398;50.928;7.084;2023-05-10T00:54:01;5.57;;;4.45;;
37559;SDS011;23398;50.928;7.084;2023-05-10T00:56:27;5.88;;;5.32;;
37559;SDS011;23398;50.928;7.084;2023-05-10T00:58:54;6.05;;;5.45;;
37559;SDS011;23398;50.928;7.084;2023-05-10T01:01:21;5.78;;;5.15;;
37559;SDS011;23398;50.928;7.084;2023-05-10T01:03:47;5.97;;;5.43;;
37559;SDS011;23398;50.928;7.084;2023-05-10T01:06:13;6.60;;;5.50;;
37559;SDS011;23398;50.928;7.084;2023-05-10T01:08:38;6.57;;;5.93;;
37559;SDS011;23398;50.928;7.084;2023-05-10T01:11:04;6.60;;;5.93;;
37559;SDS011;23398;50.928;7.084;2023-05-10T01:13:31;6.78;;;6.07;;
37559;SDS011;23398;50.928;7.084;2023-05-10T01:16:00;6.60;;;5.90;;
37559;SDS011;23398;50.928;7.084;2023-05-10T01:18:28;6.57;;;5.95;;
37559;SDS011;23398;50.928;7.084;2023-05-10T01:21:32;6.22;;;5.63;;
37559;SDS011;23398;50.928;7.084;2023-05-10T01:27:19;6.82;;;6.13;;
37559;SDS011;23398;50.928;7.084;2023-05-10T01:32:53;6.00;;;5.40;;
37559;SDS011;23398;50.928;7.084;2023-05-10T01:38:29;7.00;;;6.15;;
37559;SDS011;23398;50.928;7.084;2023-05-10T01:43:42;7.72;;;6.80;;
37559;SDS011;23398;50.928;7.084;2023-05-10T01:46:36;7.07;;;6.38;;
37559;SDS011;23398;50.928;7.084;2023-05-10T01:49:03;7.10;;;6.38;;
37559;SDS011;23398;50.928;7.084;2023-05-10T01:51:39;7.50;;;6.53;;
37559;SDS011;23398;50.928;7.084;2023-05-10T01:54:17;7.32;;;6.63;;
37559;SDS011;23398;50.928;7.084;2023-05-10T01:56:45;7.45;;;6.68;;
37559;SDS011;23398;50.928;7.084;2023-05-10T01:59:17;7.65;;;6.85;;
37559;SDS011;23398;50.928;7.084;2023-05-10T02:01:44;7.13;;;6.43;;
37559;SDS011;23398;50.928;7.084;2023-05-10T02:04:12;7.57;;;6.82;;
37559;SDS011;23398;50.928;7.084;2023-05-10T02:06:41;7.35;;;6.65;;
37559;SDS011;23398;50.928;7.084;2023-05-10T02:09:09;7.90;;;7.10;;
37559;SDS011;23398;50.928;7.084;2023-05-10T02:11:41;8.77;;;7.45;;
37559;SDS011;23398;50.928;7.084;2023-05-10T02:14:09;9.82;;;6.53;;
37559;SDS011;23398;50.928;7.084;2023-05-10T02:16:36;7.20;;;6.50;;
37559;SDS011;23398;50.928;7.084;2023-05-10T02:19:03;7.72;;;6.55;;
37559;SDS011;23398;50.928;7.084;2023-05-10T02:21:30;6.80;;;6.10;;
37559;SDS011;23398;50.928;7.084;2023-05-10T02:23:57;6.75;;;5.90;;
37559;SDS011;23398;50.928;7.084;2023-05-10T02:26:24;6.57;;;5.97;;
37559;SDS011;23398;50.928;7.084;2023-05-10T02:28:51;7.38;;;6.40;;
37559;SDS011;23398;50.928;7.084;2023-05-10T02:31:18;7.57;;;6.05;;
37559;SDS011;23398;50.928;7.084;2023-05-10T02:33:45;6.13;;;5.45;;
37559;SDS011;23398;50.928;7.084;2023-05-10T02:36:12;5.63;;;4.43;;
37559;SDS011;23398;50.928;7.084;2023-05-10T02:38:40;3.40;;;2.95;;
37559;SDS011;23398;50.928;7.084;2023-05-10T02:41:06;2.88;;;2.33;;
37559;SDS011;23398;50.928;7.084;2023-05-10T02:43:35;5.10;;;3.55;;
37559;SDS011;23398;50.928;7.084;2023-05-10T02:46:02;2.45;;;2.20;;
37559;SDS011;23398;50.928;7.084;2023-05-10T02:48:28;2.72;;;2.08;;
37559;SDS011;23398;50.928;7.084;2023-05-10T02:50:55;2.67;;;2.17;;
37559;SDS011;23398;50.928;7.084;2023-05-10T02:53:30;2.85;;;1.88;;
37559;SDS011;23398;50.928;7.084;2023-05-10T02:55:58;1.95;;;1.80;;
37559;SDS011;23398;50.928;7.084;2023-05-10T02:58:26;3.70;;;2.17;;
37559;SDS011;23398;50.928;7.084;2023-05-10T03:00:51;2.30;;;2.10;;
37559;SDS011;23398;50.928;7.084;2023-05-10T03:03:17;2.95;;;2.20;;
37559;SDS011;23398;50.928;7.084;2023-05-10T03:05:44;2.33;;;2.13;;
37559;SDS011;23398;50.928;7.084;2023-05-10T03:08:10;2.40;;;2.20;;
37559;SDS011;23398;50.928;7.084;2023-05-10T03:10:38;3.03;;;2.45;;
37559;SDS011;23398;50.928;7.084;2023-05-10T03:13:31;3.55;;;2.33;;
37559;SDS011;23398;50.928;7.084;2023-05-10T03:16:12;2.53;;;2.25;;
37559;SDS011;23398;50.928;7.084;2023-05-10T03:19:06;2.50;;;2.30;;
37559;SDS011;23398;50.928;7.084;2023-05-10T03:21:41;3.08;;;2.40;;
37559;SDS011;23398;50.928;7.084;2023-05-10T03:24:11;2.83;;;2.50;;
37559;SDS011;23398;50.928;7.084;2023-05-10T03:26:40;4.03;;;2.50;;
37559;SDS011;23398;50.928;7.084;2023-05-10T03:29:10;3.10;;;2.63;;
37559;SDS011;23398;50.928;7.084;2023-05-10T03:31:37;3.70;;;2.65;;
37559;SDS011;23398;50.928;7.084;2023-05-10T03:34:04;3.70;;;2.85;;
37559;SDS011;23398;50.928;7.084;2023-05-10T03:36:29;4.07;;;2.70;;
37559;SDS011;23398;50.928;7.084;2023-05-10T03:38:55;3.67;;;2.60;;
37559;SDS011;23398;50.928;7.084;2023-05-10T03:41:20;3.53;;;3.13;;
37559;SDS011;23398;50.928;7.084;2023-05-10T03:43:46;3.92;;;3.22;;
37559;SDS011;23398;50.928;7.084;2023-05-10T03:46:11;3.72;;;3.22;;
37559;SDS011;23398;50.928;7.084;2023-05-10T03:48:37;4.13;;;3.63;;
37559;SDS011;23398;50.928;7.084;2023-05-10T03:51:02;3.75;;;3.13;;
37559;SDS011;23398;50.928;7.084;2023-05-10T03:53:28;3.88;;;3.40;;
37559;SDS011;23398;50.928;7.084;2023-05-10T03:55:53;4.00;;;3.60;;
37559;SDS011;23398;50.928;7.084;2023-05-10T03:58:19;4.00;;;3.33;;
37559;SDS011;23398;50.928;7.084;2023-05-10T04:00:45;3.67;;;3.10;;
37559;SDS011;23398;50.928;7.084;2023-05-10T04:03:11;4.65;;;3.55;;
37559;SDS011;23398;50.928;7.084;2023-05-10T04:05:37;4.40;;;3.15;;
37559;SDS011;23398;50.928;7.084;2023-05-10T04:08:03;3.85;;;3.15;;
37559;SDS011;23398;50.928;7.084;2023-05-10T04:10:29;3.50;;;3.20;;
37559;SDS011;23398;50.928;7.084;2023-05-10T04:12:54;4.90;;;3.22;;
37559;SDS011;23398;50.928;7.084;2023-05-10T04:15:20;4.32;;;3.63;;
37559;SDS011;23398;50.928;7.084;2023-05-10T04:17:46;4.88;;;3.90;;
37559;SDS011;23398;50.928;7.084;2023-05-10T04:20:11;4.13;;;3.60;;
37559;SDS011;23398;50.928;7.084;2023-05-10T04:22:38;3.40;;;2.97;;
37559;SDS011;23398;50.928;7.084;2023-05-10T04:25:03;4.50;;;3.22;;
37559;SDS011;23398;50.928;7.084;2023-05-10T04:27:30;4.65;;;4.10;;
37559;SDS011;23398;50.928;7.084;2023-05-10T04:29:56;5.05;;;4.20;;
37559;SDS011;23398;50.928;7.084;2023-05-10T04:32:22;6.78;;;5.28;;
37559;SDS011;23398;50.928;7.084;2023-05-10T04:34:48;6.25;;;4.72;;
37559;SDS011;23398;50.928;7.084;2023-05-10T04:37:13;6.30;;;5.35;;
37559;SDS011;23398;50.928;7.084;2023-05-10T04:39:39;6.25;;;5.65;;
37559;SDS011;23398;50.928;7.084;2023-05-10T04:42:05;6.25;;;5.43;;
37559;SDS011;23398;50.928;7.084;2023-05-10T04:44:31;6.93;;;6.10;;
37559;SDS011;23398;50.928;7.084;2023-05-10T04:46:57;7.72;;;6.53;;
37559;SDS011;23398;50.928;7.084;2023-05-10T04:49:22;7.90;;;6.13;;
37559;SDS011;23398;50.928;7.084;2023-05-10T04:51:48;7.05;;;6.10;;
37559;SDS011;23398;50.928;7.084;2023-05-10T04:54:13;7.25;;;6.55;;
37559;SDS011;23398;50.928;7.084;2023-05-10T04:56:39;7.70;;;6.47;;
37559;SDS011;23398;50.928;7.084;2023-05-10T04:59:05;7.30;;;6.38;;
37559;SDS011;23398;50.928;7.084;2023-05-10T05:01:31;7.80;;;7.00;;
37559;SDS011;23398;50.928;7.084;2023-05-10T05:03:56;9.63;;;7.03;;
37559;SDS011;23398;50.928;7.084;2023-05-10T05:06:22;7.82;;;6.97;;
37559;SDS011;23398;50.928;7.084;2023-05-10T05:08:49;10.00;;;7.88;;
37559;SDS011;23398;50.928;7.084;2023-05-10T05:11:15;9.63;;;7.53;;
37559;SDS011;23398;50.928;7.084;2023-05-10T05:13:41;8.18;;;6.45;;
37559;SDS011;23398;50.928;7.084;2023-05-10T05:16:07;9.15;;;7.20;;
37559;SDS011;23398;50.928;7.084;2023-05-10T05:18:32;13.18;;;7.50;;
37559;SDS011;23398;50.928;7.084;2023-05-10T05:20:58;9.45;;;7.15;;
37559;SDS011;23398;50.928;7.084;2023-05-10T05:23:24;9.25;;;7.28;;
37559;SDS011;23398;50.928;7.084;2023-05-10T05:25:51;8.93;;;7.20;;
37559;SDS011;23398;50.928;7.084;2023-05-10T05:28:17;9.98;;;7.90;;
37559;SDS011;23398;50.928;7.084;2023-05-10T05:30:43;11.73;;;8.23;;
37559;SDS011;23398;50.928;7.084;2023-05-10T05:33:09;11.65;;;7.43;;
37559;SDS011;23398;50.928;7.084;2023-05-10T05:35:34;8.15;;;6.68;;
37559;SDS011;23398;50.928;7.084;2023-05-10T05:38:00;9.95;;;7.00;;
37559;SDS011;23398;50.928;7.084;2023-05-10T05:40:26;8.15;;;6.72;;
37559;SDS011;23398;50.928;7.084;2023-05-10T05:42:51;9.23;;;7.00;;
37559;SDS011;23398;50.928;7.084;2023-05-10T05:45:17;8.20;;;6.22;;
37559;SDS011;23398;50.928;7.084;2023-05-10T05:47:42;8.82;;;6.63;;
37559;SDS011;23398;50.928;7.084;2023-05-10T05:50:08;9.45;;;7.05;;
37559;SDS011;23398;50.928;7.084;2023-05-10T05:52:34;10.25;;;7.03;;
37559;SDS011;23398;50.928;7.084;2023-05-10T05:55:00;11.15;;;6.80;;
37559;SDS011;23398;50.928;7.084;2023-05-10T05:57:26;7.80;;;6.15;;
37559;SDS011;23398;50.928;7.084;2023-05-10T05:59:52;7.85;;;6.25;;
37559;SDS011;23398;50.928;7.084;2023-05-10T06:02:17;7.43;;;6.22;;
37559;SDS011;23398;50.928;7.084;2023-05-10T06:04:43;11.68;;;7.68;;
37559;SDS011;23398;50.928;7.084;2023-05-10T06:07:09;10.02;;;6.78;;
37559;SDS011;23398;50.928;7.084;2023-05-10T06:09:34;9.45;;;6.35;;
37559;SDS011;23398;50.928;7.084;2023-05-10T06:12:00;11.07;;;6.97;;
37559;SDS011;23398;50.928;7.084;2023-05-10T06:14:26;9.48;;;6.57;;
37559;SDS011;23398;50.928;7.084;2023-05-10T06:16:52;9.43;;;6.80;;
37559;SDS011;23398;50.928;7.084;2023-05-10T06:19:17;8.63;;;6.93;;
37559;SDS011;23398;50.928;7.084;2023-05-10T06:21:43;10.02;;;7.00;;
37559;SDS011;23398;50.928;7.084;2023-05-10T06:24:08;9.35;;;7.10;;
37559;SDS011;23398;50.928;7.084;2023-05-10T06:26:34;10.40;;;7.30;;
37559;SDS011;23398;50.928;7.084;2023-05-10T06:29:00;9.20;;;7.13;;
37559;SDS011;23398;50.928;7.084;2023-05-10T06:31:26;11.75;;;8.68;;
37559;SDS011;23398;50.928;7.084;2023-05-10T06:33:52;9.40;;;7.18;;
37559;SDS011;23398;50.928;7.084;2023-05-10T06:36:17;9.70;;;6.60;;
37559;SDS011;23398;50.928;7.084;2023-05-10T06:38:43;9.57;;;6.88;;
37559;SDS011;23398;50.928;7.084;2023-05-10T06:41:09;7.80;;;6.50;;
37559;SDS011;23398;50.928;7.084;2023-05-10T06:43:34;10.20;;;6.70;;
37559;SDS011;23398;50.928;7.084;2023-05-10T06:46:00;8.20;;;7.05;;
37559;SDS011;23398;50.928;7.084;2023-05-10T06:48:25;8.73;;;6.57;;
37559;SDS011;23398;50.928;7.084;2023-05-10T06:50:51;8.52;;;6.63;;
37559;SDS011;23398;50.928;7.084;2023-05-10T06:53:17;8.27;;;6.50;;
37559;SDS011;23398;50.928;7.084;2023-05-10T06:55:42;9.27;;;6.85;;
37559;SDS011;23398;50.928;7.084;2023-05-10T06:58:08;9.23;;;6.03;;
37559;SDS011;23398;50.928;7.084;2023-05-10T07:00:33;11.90;;;7.00;;
37559;SDS011;23398;50.928;7.084;2023-05-10T07:02:59;8.65;;;6.72;;
37559;SDS011;23398;50.928;7.084;2023-05-10T07:05:25;9.07;;;6.65;;
37559;SDS011;23398;50.928;7.084;2023-05-10T07:07:52;8.43;;;7.13;;
37559;SDS011;23398;50.928;7.084;2023-05-10T07:10:18;10.55;;;7.15;;
37559;SDS011;23398;50.928;7.084;2023-05-10T07:12:43;10.30;;;7.25;;
37559;SDS011;23398;50.928;7.084;2023-05-10T07:15:09;9.30;;;7.13;;
37559;SDS011;23398;50.928;7.084;2023-05-10T07:17:35;12.73;;;9.38;;
37559;SDS011;23398;50.928;7.084;2023-05-10T07:20:01;11.23;;;8.63;;
37559;SDS011;23398;50.928;7.084;2023-05-10T07:22:28;9.48;;;7.80;;
37559;SDS011;23398;50.928;7.084;2023-05-10T07:24:54;10.63;;;8.05;;
37559;SDS011;23398;50.928;7.084;2023-05-10T07:27:19;9.00;;;7.55;;
37559;SDS011;23398;50.928;7.084;2023-05-10T07:29:45;12.27;;;8.30;;
37559;SDS011;23398;50.928;7.084;2023-05-10T07:32:10;8.82;;;7.80;;
37559;SDS011;23398;50.928;7.084;2023-05-10T07:34:36;9.40;;;7.28;;
37559;SDS011;23398;50.928;7.084;2023-05-10T07:37:02;10.18;;;7.47;;
37559;SDS011;23398;50.928;7.084;2023-05-10T07:39:27;8.07;;;6.82;;
37559;SDS011;23398;50.928;7.084;2023-05-10T07:41:53;8.50;;;7.60;;
37559;SDS011;23398;50.928;7.084;2023-05-10T07:44:19;8.90;;;7.22;;
37559;SDS011;23398;50.928;7.084;2023-05-10T07:46:45;9.48;;;7.80;;
37559;SDS011;23398;50.928;7.084;2023-05-10T07:49:11;9.77;;;8.00;;
37559;SDS011;23398;50.928;7.084;2023-05-10T07:51:37;10.63;;;8.07;;
37559;SDS011;23398;50.928;7.084;2023-05-10T07:54:02;9.52;;;7.55;;
37559;SDS011;23398;50.928;7.084;2023-05-10T07:56:31;9.13;;;7.70;;
37559;SDS011;23398;50.928;7.084;2023-05-10T07:59:01;8.48;;;7.40;;
37559;SDS011;23398;50.928;7.084;2023-05-10T08:01:32;9.48;;;6.85;;
37559;SDS011;23398;50.928;7.084;2023-05-10T08:04:00;9.50;;;7.18;;
37559;SDS011;23398;50.928;7.084;2023-05-10T08:06:26;9.50;;;7.55;;
37559;SDS011;23398;50.928;7.084;2023-05-10T08:08:54;9.73;;;7.35;;
37559;SDS011;23398;50.928;7.084;2023-05-10T08:11:20;8.10;;;7.00;;
37559;SDS011;23398;50.928;7.084;2023-05-10T08:13:47;8.10;;;7.03;;
37559;SDS011;23398;50.928;7.084;2023-05-10T08:16:14;8.50;;;6.95;;
37559;SDS011;23398;50.928;7.084;2023-05-10T08:18:40;9.57;;;7.50;;
37559;SDS011;23398;50.928;7.084;2023-05-10T08:21:06;9.63;;;7.28;;
37559;SDS011;23398;50.928;7.084;2023-05-10T08:23:32;9.02;;;7.07;;
37559;SDS011;23398;50.928;7.084;2023-05-10T08:25:58;12.65;;;8.15;;
37559;SDS011;23398;50.928;7.084;2023-05-10T08:28:24;9.93;;;7.55;;
37559;SDS011;23398;50.928;7.084;2023-05-10T08:30:50;9.35;;;7.50;;
37559;SDS011;23398;50.928;7.084;2023-05-10T08:33:17;10.77;;;7.50;;
37559;SDS011;23398;50.928;7.084;2023-05-10T08:35:43;9.63;;;7.72;;
37559;SDS011;23398;50.928;7.084;2023-05-10T08:38:09;8.60;;;7.53;;
37559;SDS011;23398;50.928;7.084;2023-05-10T08:40:35;7.85;;;7.05;;
37559;SDS011;23398;50.928;7.084;2023-05-10T08:43:06;9.13;;;6.68;;
37559;SDS011;23398;50.928;7.084;2023-05-10T08:45:35;8.50;;;6.95;;
37559;SDS011;23398;50.928;7.084;2023-05-10T08:48:06;7.20;;;6.20;;
37559;SDS011;23398;50.928;7.084;2023-05-10T08:50:34;9.40;;;6.70;;
37559;SDS011;23398;50.928;7.084;2023-05-10T08:53:02;6.63;;;5.10;;
37559;SDS011;23398;50.928;7.084;2023-05-10T08:55:29;6.35;;;5.40;;
37559;SDS011;23398;50.928;7.084;2023-05-10T08:57:57;6.57;;;5.88;;
37559;SDS011;23398;50.928;7.084;2023-05-10T09:00:23;5.68;;;5.10;;
37559;SDS011;23398;50.928;7.084;2023-05-10T09:02:49;4.65;;;3.92;;
37559;SDS011;23398;50.928;7.084;2023-05-10T09:05:15;4.78;;;3.70;;
37559;SDS011;23398;50.928;7.084;2023-05-10T09:07:42;3.83;;;3.38;;
37559;SDS011;23398;50.928;7.084;2023-05-10T09:10:08;5.70;;;4.03;;
37559;SDS011;23398;50.928;7.084;2023-05-10T09:12:35;5.30;;;4.00;;
37559;SDS011;23398;50.928;7.084;2023-05-10T09:15:01;5.35;;;4.50;;
37559;SDS011;23398;50.928;7.084;2023-05-10T09:17:28;4.35;;;3.95;;
37559;SDS011;23398;50.928;7.084;2023-05-10T09:19:58;4.53;;;3.85;;
37559;SDS011;23398;50.928;7.084;2023-05-10T09:22:29;3.97;;;3.20;;
37559;SDS011;23398;50.928;7.084;2023-05-10T09:27:31;3.63;;;3.10;;
37559;SDS011;23398;50.928;7.084;2023-05-10T09:29:57;3.33;;;2.97;;
37559;SDS011;23398;50.928;7.084;2023-05-10T09:32:35;4.65;;;3.30;;
37559;SDS011;23398;50.928;7.084;2023-05-10T09:35:11;3.97;;;3.47;;
37559;SDS011;23398;50.928;7.084;2023-05-10T09:37:43;4.38;;;3.97;;
37559;SDS011;23398;50.928;7.084;2023-05-10T09:40:11;3.92;;;3.53;;
37559;SDS011;23398;50.928;7.084;2023-05-10T09:42:38;4.50;;;4.07;;
37559;SDS011;23398;50.928;7.084;2023-05-10T09:45:05;4.25;;;3.80;;
37559;SDS011;23398;50.928;7.084;2023-05-10T09:47:35;5.63;;;4.75;;
37559;SDS011;23398;50.928;7.084;2023-05-10T09:50:01;5.72;;;4.40;;
37559;SDS011;23398;50.928;7.084;2023-05-10T09:52:29;5.18;;;4.68;;
37559;SDS011;23398;50.928;7.084;2023-05-10T09:55:13;7.18;;;5.00;;
37559;SDS011;23398;50.928;7.084;2023-05-10T09:57:38;6.82;;;6.05;;
37559;SDS011;23398;50.928;7.084;2023-05-10T10:00:05;9.10;;;5.90;;
37559;SDS011;23398;50.928;7.084;2023-05-10T10:02:32;7.68;;;6.32;;
37559;SDS011;23398;50.928;7.084;2023-05-10T10:04:57;8.98;;;6.65;;
37559;SDS011;23398;50.928;7.084;2023-05-10T10:07:25;8.63;;;6.70;;
37559;SDS011;23398;50.928;7.084;2023-05-10T10:09:51;8.75;;;6.45;;
37559;SDS011;23398;50.928;7.084;2023-05-10T10:12:18;10.15;;;6.68;;
37559;SDS011;23398;50.928;7.084;2023-05-10T10:14:44;10.68;;;7.00;;
37559;SDS011;23398;50.928;7.084;2023-05-10T10:17:11;9.82;;;6.80;;
37559;SDS011;23398;50.928;7.084;2023-05-10T10:19:37;8.15;;;6.18;;
37559;SDS011;23398;50.928;7.084;2023-05-10T10:22:03;9.52;;;6.40;;
37559;SDS011;23398;50.928;7.084;2023-05-10T10:24:30;8.10;;;6.45;;
37559;SDS011;23398;50.928;7.084;2023-05-10T10:26:57;7.22;;;6.00;;
37559;SDS011;23398;50.928;7.084;2023-05-10T10:30:15;8.43;;;6.70;;
37559;SDS011;23398;50.928;7.084;2023-05-10T10:35:20;8.60;;;6.68;;
37559;SDS011;23398;50.928;7.084;2023-05-10T10:37:47;8.77;;;6.68;;
37559;SDS011;23398;50.928;7.084;2023-05-10T10:42:53;7.80;;;6.05;;
37559;SDS011;23398;50.928;7.084;2023-05-10T10:45:20;8.13;;;6.47;;
37559;SDS011;23398;50.928;7.084;2023-05-10T10:47:46;8.73;;;6.35;;
37559;SDS011;23398;50.928;7.084;2023-05-10T10:50:13;6.63;;;5.90;;
37559;SDS011;23398;50.928;7.084;2023-05-10T10:52:41;7.32;;;6.07;;
37559;SDS011;23398;50.928;7.084;2023-05-10T11:00:22;6.80;;;5.22;;
37559;SDS011;23398;50.928;7.084;2023-05-10T11:02:49;6.03;;;5.15;;
37559;SDS011;23398;50.928;7.084;2023-05-10T11:07:52;7.72;;;5.68;;
37559;SDS011;23398;50.928;7.084;2023-05-10T11:10:20;5.82;;;4.90;;
37559;SDS011;23398;50.928;7.084;2023-05-10T11:13:05;5.70;;;4.60;;
37559;SDS011;23398;50.928;7.084;2023-05-10T11:18:17;5.13;;;4.30;;
37559;SDS011;23398;50.928;7.084;2023-05-10T11:20:52;4.80;;;4.25;;
37559;SDS011;23398;50.928;7.084;2023-05-10T11:26:09;7.43;;;4.78;;
37559;SDS011;23398;50.928;7.084;2023-05-10T11:28:45;5.30;;;4.15;;
37559;SDS011;23398;50.928;7.084;2023-05-10T11:31:13;5.65;;;4.70;;
37559;SDS011;23398;50.928;7.084;2023-05-10T11:33:58;5.97;;;4.93;;
37559;SDS011;23398;50.928;7.084;2023-05-10T11:36:32;4.95;;;4.28;;
37559;SDS011;23398;50.928;7.084;2023-05-10T11:38:59;5.50;;;4.35;;
37559;SDS011;23398;50.928;7.084;2023-05-10T11:41:25;4.90;;;4.03;;
37559;SDS011;23398;50.928;7.084;2023-05-10T11:43:54;3.75;;;3.35;;
37559;SDS011;23398;50.928;7.084;2023-05-10T11:46:21;4.63;;;3.40;;
37559;SDS011;23398;50.928;7.084;2023-05-10T11:48:52;3.47;;;3.17;;
37559;SDS011;23398;50.928;7.084;2023-05-10T11:51:22;3.00;;;2.70;;
37559;SDS011;23398;50.928;7.084;2023-05-10T11:53:49;3.20;;;2.90;;
37559;SDS011;23398;50.928;7.084;2023-05-10T11:56:16;2.35;;;2.15;;
37559;SDS011;23398;50.928;7.084;2023-05-10T11:58:41;2.92;;;2.40;;
37559;SDS011;23398;50.928;7.084;2023-05-10T12:01:07;2.63;;;2.15;;
37559;SDS011;23398;50.928;7.084;2023-05-10T12:03:34;3.20;;;2.90;;
37559;SDS011;23398;50.928;7.084;2023-05-10T12:06:00;4.78;;;3.65;;
37559;SDS011;23398;50.928;7.084;2023-05-10T12:08:27;2.60;;;2.40;;
37559;SDS011;23398;50.928;7.084;2023-05-10T12:11:03;3.67;;;2.40;;
37559;SDS011;23398;50.928;7.084;2023-05-10T12:13:37;2.97;;;2.17;;
37559;SDS011;23398;50.928;7.084;2023-05-10T12:16:18;1.98;;;1.83;;
37559;SDS011;23398;50.928;7.084;2023-05-10T12:18:47;2.95;;;1.88;;
37559;SDS011;23398;50.928;7.084;2023-05-10T12:21:14;2.15;;;1.70;;
37559;SDS011;23398;50.928;7.084;2023-05-10T12:23:40;2.65;;;1.60;;
37559;SDS011;23398;50.928;7.084;2023-05-10T12:26:09;1.63;;;1.50;;
37559;SDS011;23398;50.928;7.084;2023-05-10T12:28:35;1.70;;;1.60;;
37559;SDS011;23398;50.928;7.084;2023-05-10T12:31:02;3.25;;;1.80;;
37559;SDS011;23398;50.928;7.084;2023-05-10T12:33:35;1.70;;;1.60;;
37559;SDS011;23398;50.928;7.084;2023-05-10T12:36:12;1.70;;;1.60;;
37559;SDS011;23398;50.928;7.084;2023-05-10T12:38:40;1.98;;;1.52;;
37559;SDS011;23398;50.928;7.084;2023-05-10T12:41:08;2.30;;;1.85;;
37559;SDS011;23398;50.928;7.084;2023-05-10T12:43:35;1.85;;;1.50;;
37559;SDS011;23398;50.928;7.084;2023-05-10T12:46:14;1.63;;;1.40;;
37559;SDS011;23398;50.928;7.084;2023-05-10T12:48:42;2.20;;;1.50;;
37559;SDS011;23398;50.928;7.084;2023-05-10T12:51:08;1.73;;;1.58;;
37559;SDS011;23398;50.928;7.084;2023-05-10T12:53:36;1.73;;;1.40;;
37559;SDS011;23398;50.928;7.084;2023-05-10T12:56:02;1.58;;;1.48;;
37559;SDS011;23398;50.928;7.084;2023-05-10T12:58:28;1.63;;;1.40;;
37559;SDS011;23398;50.928;7.084;2023-05-10T13:00:53;1.70;;;1.60;;
37559;SDS011;23398;50.928;7.084;2023-05-10T13:03:21;2.60;;;1.52;;
37559;SDS011;23398;50.928;7.084;2023-05-10T13:05:47;1.80;;;1.33;;
37559;SDS011;23398;50.928;7.084;2023-05-10T13:08:12;1.40;;;1.30;;
37559;SDS011;23398;50.928;7.084;2023-05-10T13:10:38;1.50;;;1.40;;
37559;SDS011;23398;50.928;7.084;2023-05-10T13:13:04;1.40;;;1.30;;
37559;SDS011;23398;50.928;7.084;2023-05-10T13:15:30;1.90;;;1.30;;
37559;SDS011;23398;50.928;7.084;2023-05-10T13:17:56;1.30;;;1.20;;
37559;SDS011;23398;50.928;7.084;2023-05-10T13:20:21;1.35;;;1.20;;
37559;SDS011;23398;50.928;7.084;2023-05-10T13:22:47;1.67;;;1.55;;
37559;SDS011;23398;50.928;7.084;2023-05-10T13:25:12;1.48;;;1.30;;
37559;SDS011;23398;50.928;7.084;2023-05-10T13:27:41;1.45;;;1.35;;
37559;SDS011;23398;50.928;7.084;2023-05-10T13:30:07;1.85;;;1.30;;
37559;SDS011;23398;50.928;7.084;2023-05-10T13:32:34;1.30;;;1.20;;
37559;SDS011;23398;50.928;7.084;2023-05-10T13:35:00;1.40;;;1.30;;
37559;SDS011;23398;50.928;7.084;2023-05-10T13:37:26;1.20;;;1.00;;
37559;SDS011;23398;50.928;7.084;2023-05-10T13:39:51;1.20;;;1.10;;
37559;SDS011;23398;50.928;7.084;2023-05-10T13:42:17;1.10;;;1.00;;
37559;SDS011;23398;50.928;7.084;2023-05-10T13:44:43;1.10;;;1.00;;
37559;SDS011;23398;50.928;7.084;2023-05-10T13:47:08;0.90;;;0.90;;
37559;SDS011;23398;50.928;7.084;2023-05-10T13:49:34;1.23;;;1.00;;
37559;SDS011;23398;50.928;7.084;2023-05-10T13:51:59;1.58;;;1.25;;
37559;SDS011;23398;50.928;7.084;2023-05-10T13:54:31;1.20;;;1.10;;
37559;SDS011;23398;50.928;7.084;2023-05-10T13:57:00;1.20;;;1.08;;
37559;SDS011;23398;50.928;7.084;2023-05-10T13:59:26;0.95;;;0.90;;
37559;SDS011;23398;50.928;7.084;2023-05-10T14:01:51;1.17;;;0.93;;
37559;SDS011;23398;50.928;7.084;2023-05-10T14:04:17;1.02;;;0.93;;
37559;SDS011;23398;50.928;7.084;2023-05-10T14:06:42;0.98;;;0.90;;
37559;SDS011;23398;50.928;7.084;2023-05-10T14:09:08;1.10;;;1.00;;
37559;SDS011;23398;50.928;7.084;2023-05-10T14:11:34;2.45;;;1.95;;
37559;SDS011;23398;50.928;7.084;2023-05-10T14:14:00;1.67;;;1.40;;
37559;SDS011;23398;50.928;7.084;2023-05-10T14:16:25;0.93;;;0.90;;
37559;SDS011;23398;50.928;7.084;2023-05-10T14:18:51;1.80;;;1.00;;
37559;SDS011;23398;50.928;7.084;2023-05-10T14:21:17;0.90;;;0.90;;
37559;SDS011;23398;50.928;7.084;2023-05-10T14:23:43;1.27;;;0.90;;
37559;SDS011;23398;50.928;7.084;2023-05-10T14:26:08;0.93;;;0.82;;
37559;SDS011;23398;50.928;7.084;2023-05-10T14:28:34;1.77;;;0.80;;
37559;SDS011;23398;50.928;7.084;2023-05-10T14:30:59;1.10;;;1.00;;
37559;SDS011;23398;50.928;7.084;2023-05-10T14:33:25;0.80;;;0.80;;
37559;SDS011;23398;50.928;7.084;2023-05-10T14:35:51;1.00;;;0.90;;
37559;SDS011;23398;50.928;7.084;2023-05-10T14:38:17;1.98;;;0.85;;
37559;SDS011;23398;50.928;7.084;2023-05-10T14:40:42;1.20;;;1.10;;
37559;SDS011;23398;50.928;7.084;2023-05-10T14:43:08;1.80;;;1.00;;
37559;SDS011;23398;50.928;7.084;2023-05-10T14:45:34;1.25;;;1.10;;
37559;SDS011;23398;50.928;7.084;2023-05-10T14:47:59;0.90;;;0.90;;
37559;SDS011;23398;50.928;7.084;2023-05-10T14:50:25;1.27;;;1.00;;
37559;SDS011;23398;50.928;7.084;2023-05-10T14:52:51;2.42;;;1.10;;
37559;SDS011;23398;50.928;7.084;2023-05-10T14:55:17;1.20;;;1.00;;
37559;SDS011;23398;50.928;7.084;2023-05-10T14:57:42;1.08;;;0.90;;
37559;SDS011;23398;50.928;7.084;2023-05-10T15:00:09;1.23;;;0.90;;
37559;SDS011;23398;50.928;7.084;2023-05-10T15:02:35;2.78;;;2.10;;
37559;SDS011;23398;50.928;7.084;2023-05-10T15:05:01;2.00;;;1.30;;
37559;SDS011;23398;50.928;7.084;2023-05-10T15:07:27;1.85;;;1.60;;
37559;SDS011;23398;50.928;7.084;2023-05-10T15:09:52;1.65;;;1.50;;
37559;SDS011;23398;50.928;7.084;2023-05-10T15:12:19;2.25;;;2.05;;
37559;SDS011;23398;50.928;7.084;2023-05-10T15:14:44;2.35;;;2.00;;
37559;SDS011;23398;50.928;7.084;2023-05-10T15:17:10;1.85;;;1.20;;
37559;SDS011;23398;50.928;7.084;2023-05-10T15:19:36;0.90;;;0.90;;